Juan De La Cosa — ECJE — position and weather

sailwx.info

Track history (hours):
 
Tides and Currents Weather Stations Pressure Air Temp Water Temp Dewpoint Dewpoint Depression Visibility Wind Speed Wind Dir Waves Ship Positions

Juan De La Cosa

Last reported at 2018-May-24 14:00 UTC. Time now 2018-May-24 14:08 UTC.
Position N 43°31' W 002°55'.

Length 75 m; draft 4.5 m.

Type: SAR. MMSI: 224612000.

Date/timePositionNaut miles runAvg speedWind from/ knotsBaromVisibWave heightAir tempDewpointWater temp
2018-May-24 14:00N 43°31' W 002°55'4 7.7
2018-May-24 13:30N 43°31' W 002°49'6 1.3
2018-May-24 09:00N 43°28' W 002°42'4 7.3
2018-May-24 08:30N 43°30' W 002°47'4 7.4
2018-May-24 08:00N 43°32' W 002°51'4 7.4
2018-May-24 07:31N 43°34' W 002°56'2 3.8
2018-May-24 07:00N 43°35' W 002°54'3 6.9
2018-May-24 06:30N 43°35' W 002°49'2 4.2
2018-May-24 06:00N 43°35' W 002°47'4 7.2
2018-May-24 05:30N 43°35' W 002°52'2 3.9
2018-May-24 05:00N 43°35' W 002°54'4 7.0
2018-May-24 04:30N 43°35' W 002°49'2 3.7
2018-May-24 04:00N 43°35' W 002°47'4 7.1
2018-May-24 03:31N 43°35' W 002°52'4 7.5
2018-May-24 03:00N 43°36' W 002°57'4 7.2
2018-May-24 02:30N 43°37' W 003°01'4 7.1
2018-May-24 02:00N 43°39' W 003°06'4 7.1
2018-May-24 01:30N 43°40' W 003°10'4 7.1
2018-May-24 01:00N 43°42' W 003°14'4 7.2
2018-May-24 00:30N 43°44' W 003°19'4 7.4
2018-May-24 00:00N 43°45' W 003°23'4 7.5
2018-May-23 23:30N 43°46' W 003°29'4 7.6
2018-May-23 22:58N 43°47' W 003°34'1 2.9
2018-May-23 22:30N 43°47' W 003°36'3 6.3
2018-May-23 22:00N 43°46' W 003°32'2 3.5
2018-May-23 21:30N 43°45' W 003°34'3 6.4
2018-May-23 21:00N 43°43' W 003°37'4 7.6
2018-May-23 20:30N 43°39' W 003°38'4 7.1
2018-May-23 20:00N 43°36' W 003°39'4 7.2
2018-May-23 19:30N 43°34' W 003°43'5 3.3
2018-May-23 17:56N 43°29' W 003°46'0 0.3
2018-May-23 17:30N 43°29' W 003°46'2 3.3
2018-May-23 16:54N 43°31' W 003°45'2 5.9
2018-May-23 16:30N 43°33' W 003°47'4 8.3
2018-May-23 16:00N 43°33' W 003°53'3 6.8
2018-May-23 15:30N 43°34' W 003°58'3 6.4
2018-May-23 15:00N 43°35' W 004°02'3 6.7
2018-May-23 14:30N 43°35' W 004°07'3 6.9
2018-May-23 14:00N 43°36' W 004°11'4 7.0
2018-May-23 13:29N 43°35' W 004°16'3 7.0
2018-May-23 13:00N 43°35' W 004°21'4 7.0
2018-May-23 12:30N 43°35' W 004°26'1 2.2
2018-May-23 11:55N 43°34' W 004°26'3 6.9
2018-May-23 11:25N 43°36' W 004°30'3 7.3
2018-May-23 10:59N 43°37' W 004°34'2 1.3
2018-May-23 09:39N 43°39' W 004°34'17 6.7
2018-May-23 07:08N 43°39' W 004°57'1 5.5
2018-May-23 07:00N 43°39' W 004°58'15 4.5
2018-May-23 03:44N 43°50' W 005°12'1 5.9
2018-May-23 03:29N 43°50' W 005°14'2 3.2
2018-May-23 03:01N 43°51' W 005°12'11 7.1
2018-May-23 01:27N 43°52' W 005°27'3 7.2
2018-May-23 00:59N 43°52' W 005°32'0 0.1
2018-May-23 00:17N 43°52' W 005°32'15 7.1
2018-May-22 22:09N 43°49' W 005°11'11 7.3
2018-May-22 20:41N 43°48' W 004°57'3 7.5
2018-May-22 20:16N 43°47' W 004°53'2 7.8
2018-May-22 20:00N 43°46' W 004°50'4 7.5
2018-May-22 19:28N 43°44' W 004°45'4 7.8
2018-May-22 19:00N 43°42' W 004°41'510.0
2018-May-22 18:30N 43°40' W 004°34'510.0
2018-May-22 18:00N 43°39' W 004°28'510.2
2018-May-22 17:30N 43°38' W 004°21'510.5
2018-May-22 17:00N 43°37' W 004°14'510.5
2018-May-22 16:30N 43°36' W 004°06'510.4
2018-May-22 16:00N 43°36' W 003°59'510.3
2018-May-22 15:30N 43°35' W 003°52'510.2
2018-May-22 14:59N 43°35' W 003°45'610.5
2018-May-22 14:26N 43°35' W 003°37'2 5.2
2018-May-22 14:00N 43°36' W 003°35'3 5.3
2018-May-22 13:30N 43°39' W 003°35'0 0.3
2018-May-22 13:00N 43°39' W 003°35'3 5.1
2018-May-22 12:22N 43°36' W 003°34'1 3.4
2018-May-22 12:01N 43°37' W 003°34'3 5.3
2018-May-22 11:30N 43°39' W 003°36'3 5.1
2018-May-22 11:00N 43°42' W 003°37'2 4.4
2018-May-22 10:30N 43°42' W 003°40'3 3.6
2018-May-22 09:48N 43°40' W 003°39'2 4.6
2018-May-22 09:23N 43°40' W 003°36'2 4.6
2018-May-22 08:58N 43°42' W 003°36'2 4.6
2018-May-22 08:28N 43°44' W 003°38'2 4.7
2018-May-22 08:00N 43°44' W 003°41'3 5.2
2018-May-22 07:30N 43°42' W 003°44'2 3.6
2018-May-22 07:00N 43°41' W 003°44'1 1.9
2018-May-22 06:30N 43°41' W 003°45'2 3.4
2018-May-22 05:54N 43°40' W 003°43'2 5.8
2018-May-22 05:30N 43°41' W 003°40'1 0.9
2018-May-22 04:53N 43°40' W 003°40'1 1.6
2018-May-22 04:30N 43°41' W 003°41'1 2.0
2018-May-22 04:00N 43°42' W 003°42'2 3.7
2018-May-22 03:30N 43°41' W 003°40'4 7.1
2018-May-22 03:00N 43°40' W 003°35'2 3.2
2018-May-22 02:30N 43°40' W 003°37'4 7.1
2018-May-22 02:00N 43°40' W 003°42'1 1.4
2018-May-22 01:30N 43°39' W 003°42'1 1.4
2018-May-22 01:00N 43°39' W 003°41'3 6.8
2018-May-22 00:30N 43°38' W 003°37'3 6.6
2018-May-22 00:01N 43°39' W 003°32'2 3.1
2018-May-21 23:30N 43°38' W 003°34'1 1.5
2018-May-21 23:00N 43°39' W 003°33'4 7.3
2018-May-21 22:30N 43°37' W 003°38'1 1.8
2018-May-21 22:00N 43°37' W 003°39'4 6.9
2018-May-21 21:22N 43°36' W 003°33'2 6.8
2018-May-21 21:00N 43°36' W 003°30'4 7.1
2018-May-21 20:30N 43°35' W 003°25'5 9.8
2018-May-21 20:00N 43°34' W 003°18'5 9.8
2018-May-21 19:30N 43°34' W 003°11'5 9.9
2018-May-21 19:00N 43°35' W 003°05'5 9.1
2018-May-21 18:30N 43°36' W 002°58'5 9.2
2018-May-21 18:00N 43°34' W 002°53'4 7.1
2018-May-21 17:30N 43°34' W 002°48'3 5.2
2018-May-21 17:00N 43°34' W 002°44'2 4.8
2018-May-21 16:30N 43°35' W 002°41'3 6.9
2018-May-21 16:00N 43°33' W 002°38'3 5.5
2018-May-21 15:30N 43°33' W 002°42'3 7.0
2018-May-21 15:00N 43°32' W 002°47'4 7.1
2018-May-21 14:30N 43°32' W 002°51'2 4.6
2018-May-21 14:00N 43°32' W 002°48'4 7.7
2018-May-21 13:30N 43°32' W 002°43'2 3.4
2018-May-21 13:00N 43°32' W 002°45'3 6.6
2018-May-21 12:30N 43°32' W 002°50'3 6.2
2018-May-21 12:00N 43°33' W 002°54'3 6.6
2018-May-21 11:30N 43°33' W 002°59'3 6.9
2018-May-21 11:00N 43°33' W 003°03'4 7.3
2018-May-21 10:30N 43°34' W 003°08'4 7.3
2018-May-21 10:00N 43°34' W 003°13'0 0.7
2018-May-21 09:30N 43°35' W 003°14'0 0.7
2018-May-21 09:00N 43°34' W 003°14'4 7.0
2018-May-21 08:30N 43°34' W 003°19'3 7.0
2018-May-21 08:00N 43°35' W 003°24'4 7.0
2018-May-21 07:30N 43°35' W 003°29'4 7.2
2018-May-21 07:00N 43°36' W 003°33'4 7.1
2018-May-21 06:29N 43°36' W 003°39'4 7.1
2018-May-21 05:59N 43°36' W 003°43'3 6.9
2018-May-21 05:30N 43°36' W 003°48'3 6.9
2018-May-21 05:00N 43°36' W 003°53'4 7.2
2018-May-21 04:30N 43°37' W 003°58'4 7.2
2018-May-21 04:00N 43°37' W 004°03'3 6.9
2018-May-21 03:30N 43°37' W 004°07'3 6.9
2018-May-21 03:00N 43°37' W 004°12'4 7.1
2018-May-21 02:30N 43°38' W 004°17'3 7.1
2018-May-21 02:00N 43°38' W 004°22'3 6.7
2018-May-21 01:29N 43°38' W 004°27'3 6.8
2018-May-21 01:00N 43°38' W 004°31'4 6.7
2018-May-21 00:28N 43°39' W 004°36'4 6.5
2018-May-20 23:55N 43°39' W 004°41'3 6.6
2018-May-20 23:30N 43°39' W 004°45'4 6.8
2018-May-20 22:53N 43°39' W 004°51'3 6.7
2018-May-20 22:30N 43°39' W 004°54'3 6.7
2018-May-20 22:00N 43°39' W 004°59'13 6.3
2018-May-20 19:55N 43°38' W 005°17'1 3.0
2018-May-20 19:26N 43°37' W 005°15'3 6.3
2018-May-20 19:00N 43°37' W 005°11'3 5.8
2018-May-20 18:28N 43°36' W 005°07'3 5.7
2018-May-20 18:00N 43°36' W 005°03'4 5.7
2018-May-20 17:23N 43°35' W 004°59'3 5.8
2018-May-20 16:56N 43°35' W 004°55'10 5.7
2018-May-20 15:05N 43°33' W 004°41'1 5.7
2018-May-20 15:00N 43°33' W 004°40'3 5.8
2018-May-20 14:26N 43°33' W 004°35'43 5.6
2018-May-20 06:48N 43°36' W 003°37'3 5.4
2018-May-20 06:13N 43°36' W 003°32'1 5.6
2018-May-20 06:00N 43°36' W 003°31'3 5.6
2018-May-20 05:30N 43°35' W 003°27'3 5.5
2018-May-20 05:00N 43°35' W 003°23'3 5.3
2018-May-20 04:30N 43°35' W 003°20'3 5.3
2018-May-20 04:00N 43°35' W 003°16'3 5.3
2018-May-20 03:30N 43°34' W 003°12'3 5.3
2018-May-20 03:00N 43°34' W 003°09'3 5.2
2018-May-20 02:30N 43°34' W 003°05'3 5.2
2018-May-20 02:00N 43°33' W 003°01'3 5.2
2018-May-20 01:30N 43°33' W 002°58'3 5.3
2018-May-20 01:00N 43°33' W 002°54'3 5.5
2018-May-20 00:30N 43°33' W 002°50'3 5.5
2018-May-20 00:00N 43°33' W 002°47'3 5.5
2018-May-19 23:30N 43°32' W 002°43'3 5.6
2018-May-19 23:00N 43°32' W 002°39'3 5.5
2018-May-19 22:30N 43°31' W 002°36'3 5.4
2018-May-19 22:00N 43°29' W 002°32'3 5.5
2018-May-19 21:30N 43°28' W 002°29'3 5.6
2018-May-19 21:00N 43°27' W 002°25'3 5.6
2018-May-19 20:30N 43°26' W 002°22'3 5.7
2018-May-19 20:00N 43°25' W 002°18'3 5.7
2018-May-19 19:30N 43°24' W 002°14'1 1.2
2018-May-19 19:00N 43°25' W 002°15'2 4.6
2018-May-19 18:31N 43°25' W 002°18'3 5.2
2018-May-19 18:00N 43°26' W 002°21'3 5.5
2018-May-19 17:30N 43°27' W 002°25'3 5.5
2018-May-19 17:00N 43°28' W 002°28'3 5.6
2018-May-19 16:30N 43°29' W 002°32'3 5.4
2018-May-19 16:00N 43°30' W 002°35'3 5.3
2018-May-19 15:30N 43°31' W 002°38'3 5.1
2018-May-19 15:00N 43°32' W 002°42'3 5.5
2018-May-19 14:30N 43°32' W 002°46'3 5.2
2018-May-19 14:00N 43°33' W 002°49'3 5.5
2018-May-19 13:30N 43°33' W 002°53'3 5.8
2018-May-19 13:00N 43°33' W 002°57'3 6.1
2018-May-19 12:30N 43°35' W 003°00'3 5.7
2018-May-19 12:00N 43°36' W 003°04'3 5.1
2018-May-19 11:30N 43°36' W 003°07'3 5.6
2018-May-19 11:00N 43°37' W 003°11'3 5.4
2018-May-19 10:30N 43°38' W 003°15'3 5.2
2018-May-19 10:00N 43°36' W 003°18'3 5.1
2018-May-19 09:30N 43°35' W 003°21'3 5.2
2018-May-19 09:00N 43°35' W 003°24'3 5.8
2018-May-19 08:30N 43°35' W 003°28'3 5.9
2018-May-19 08:00N 43°36' W 003°32'3 5.5
2018-May-19 07:30N 43°36' W 003°36'3 5.0
2018-May-19 07:00N 43°36' W 003°39'3 5.3
2018-May-19 06:30N 43°37' W 003°43'3 5.6
2018-May-19 06:00N 43°37' W 003°47'3 5.6
2018-May-19 05:30N 43°37' W 003°51'3 5.6
2018-May-19 05:00N 43°37' W 003°55'3 5.8
2018-May-19 04:30N 43°38' W 003°59'3 6.1
2018-May-19 03:57N 43°38' W 004°03'3 6.0
2018-May-19 03:22N 43°39' W 004°08'45 5.1
2018-May-18 18:26N 43°37' W 005°11'2 3.8
2018-May-18 17:59N 43°38' W 005°11'3 5.8
2018-May-18 17:28N 43°39' W 005°07'3 5.8
2018-May-18 17:00N 43°40' W 005°03'56 5.7
2018-May-18 07:08N 43°36' W 003°45'9 5.5
2018-May-18 05:26N 43°35' W 003°33'2 5.6
2018-May-18 05:00N 43°35' W 003°29'3 5.5
2018-May-18 04:30N 43°35' W 003°26'3 5.3
2018-May-18 04:00N 43°35' W 003°22'3 5.3
2018-May-18 03:30N 43°34' W 003°18'3 5.4
2018-May-18 02:59N 43°34' W 003°14'3 5.7
2018-May-18 02:30N 43°34' W 003°11'3 5.9
2018-May-18 02:00N 43°34' W 003°07'3 5.5
2018-May-18 01:30N 43°33' W 003°03'3 5.3
2018-May-18 01:00N 43°33' W 002°59'3 5.3
2018-May-18 00:29N 43°33' W 002°55'2 5.0
2018-May-18 00:00N 43°33' W 002°52'3 5.1
2018-May-17 23:30N 43°33' W 002°49'3 5.2
2018-May-17 23:00N 43°33' W 002°45'3 5.3
2018-May-17 22:29N 43°32' W 002°41'3 5.4
2018-May-17 22:00N 43°31' W 002°38'3 5.5
2018-May-17 21:30N 43°30' W 002°34'3 5.3
2018-May-17 21:00N 43°29' W 002°31'3 5.3
2018-May-17 20:30N 43°28' W 002°28'3 5.4
2018-May-17 20:00N 43°27' W 002°24'3 5.4
2018-May-17 19:30N 43°26' W 002°21'3 5.2
2018-May-17 19:00N 43°25' W 002°17'3 5.2
2018-May-17 18:30N 43°24' W 002°14'3 5.2
2018-May-17 18:00N 43°23' W 002°11'3 5.3
2018-May-17 17:31N 43°23' W 002°07'3 5.3
2018-May-17 17:00N 43°22' W 002°11'3 5.7
2018-May-17 16:30N 43°23' W 002°15'3 5.5
2018-May-17 16:00N 43°24' W 002°18'3 5.6
2018-May-17 15:30N 43°27' W 002°20'2 3.6
2018-May-17 15:00N 43°28' W 002°19'2 3.9
2018-May-17 14:30N 43°30' W 002°17'3 5.4
2018-May-17 14:00N 43°28' W 002°20'3 5.2
2018-May-17 13:30N 43°27' W 002°23'2 4.4
2018-May-17 13:00N 43°27' W 002°26'3 5.4
2018-May-17 12:30N 43°29' W 002°29'3 5.3
2018-May-17 12:00N 43°30' W 002°33'3 5.4
2018-May-17 11:30N 43°31' W 002°36'3 5.4
2018-May-17 11:00N 43°33' W 002°38'3 5.1
2018-May-17 10:30N 43°34' W 002°41'2 3.2
2018-May-17 10:00N 43°33' W 002°43'3 5.6
2018-May-17 09:30N 43°34' W 002°40'3 5.6
2018-May-17 09:00N 43°35' W 002°36'3 5.5
2018-May-17 08:30N 43°35' W 002°32'3 5.4
2018-May-17 08:00N 43°36' W 002°28'3 5.2
2018-May-17 07:30N 43°35' W 002°25'0 0.7
2018-May-17 07:00N 43°35' W 002°25'3 6.5
2018-May-17 06:30N 43°36' W 002°29'3 6.7
2018-May-17 06:00N 43°37' W 002°33'2 3.8
2018-May-17 05:30N 43°38' W 002°35'3 5.6
2018-May-17 05:00N 43°38' W 002°31'3 5.7
2018-May-17 04:30N 43°38' W 002°27'3 5.4
2018-May-17 04:00N 43°36' W 002°25'3 6.0
2018-May-17 03:30N 43°33' W 002°23'3 6.6
2018-May-17 03:01N 43°30' W 002°22'2 4.5
2018-May-17 02:30N 43°31' W 002°25'4 7.2
2018-May-17 02:00N 43°31' W 002°30'2 3.6
2018-May-17 01:30N 43°31' W 002°32'3 6.4
2018-May-17 01:00N 43°30' W 002°28'1 1.8
2018-May-17 00:30N 43°29' W 002°28'1 2.1
2018-May-17 00:00N 43°29' W 002°29'1 2.7
2018-May-16 23:30N 43°29' W 002°31'4 7.0
2018-May-16 23:00N 43°31' W 002°35'3 5.6
2018-May-16 22:30N 43°31' W 002°31'2 5.0
2018-May-16 22:00N 43°33' W 002°33'3 6.7
2018-May-16 21:30N 43°34' W 002°38'3 6.6
2018-May-16 21:00N 43°34' W 002°42'3 6.6
2018-May-16 20:30N 43°34' W 002°47'3 6.6
2018-May-16 20:00N 43°34' W 002°52'3 6.9
2018-May-16 19:30N 43°33' W 002°56'3 6.6
2018-May-16 19:00N 43°33' W 003°01'2 3.4
2018-May-16 18:30N 43°34' W 003°03'4 7.1
2018-May-16 17:53N 43°33' W 002°57'3 7.2
2018-May-16 17:29N 43°33' W 002°53'3 7.2
2018-May-16 17:00N 43°32' W 002°48'3 7.0
2018-May-16 16:30N 43°32' W 002°44'3 6.7
2018-May-16 16:00N 43°31' W 002°39'3 6.4
2018-May-16 15:30N 43°31' W 002°35'1 2.2
2018-May-16 15:00N 43°32' W 002°35'4 7.5
2018-May-16 14:30N 43°34' W 002°39'4 7.4
2018-May-16 14:00N 43°36' W 002°44'3 5.9
2018-May-16 13:30N 43°36' W 002°48'0 0.5
2018-May-16 13:00N 43°36' W 002°48'2 3.8
2018-May-16 12:30N 43°36' W 002°46'1 1.9
2018-May-16 12:00N 43°36' W 002°44'4 7.5
2018-May-16 11:30N 43°37' W 002°49'2 3.3
2018-May-16 11:00N 43°38' W 002°47'3 6.4
2018-May-16 10:30N 43°38' W 002°43'1 1.3
2018-May-16 10:00N 43°37' W 002°44'4 7.4
2018-May-16 09:30N 43°37' W 002°49'2 3.1
2018-May-16 09:00N 43°38' W 002°46'3 6.7
2018-May-16 08:30N 43°36' W 002°43'3 6.7
2018-May-16 08:00N 43°33' W 002°39'1 1.3
2018-May-16 07:30N 43°33' W 002°40'3 6.9
2018-May-16 07:00N 43°35' W 002°44'3 6.2
2018-May-16 06:30N 43°35' W 002°48'1 3.0
2018-May-16 06:00N 43°35' W 002°50'3 6.7
2018-May-16 05:30N 43°34' W 002°45'3 6.8
2018-May-16 05:00N 43°34' W 002°41'1 2.6
2018-May-16 04:30N 43°33' W 002°42'4 7.1
2018-May-16 04:01N 43°32' W 002°47'3 7.0
2018-May-16 03:30N 43°33' W 002°52'2 3.9
2018-May-16 03:00N 43°34' W 002°49'3 6.4
2018-May-16 02:30N 43°34' W 002°45'3 6.2
2018-May-16 02:00N 43°34' W 002°40'3 6.4
2018-May-16 01:30N 43°35' W 002°36'3 5.1
2018-May-16 01:00N 43°35' W 002°40'4 7.5
2018-May-16 00:30N 43°35' W 002°45'0 0.6
2018-May-15 23:59N 43°35' W 002°45'3 6.3
2018-May-15 23:30N 43°35' W 002°41'2 3.4
2018-May-15 23:00N 43°35' W 002°38'4 7.4
2018-May-15 22:30N 43°35' W 002°43'4 7.3
2018-May-15 22:00N 43°35' W 002°48'1 1.9
2018-May-15 21:30N 43°36' W 002°49'3 5.8
2018-May-15 21:00N 43°34' W 002°46'3 6.5
2018-May-15 20:30N 43°33' W 002°42'3 6.4
2018-May-15 20:00N 43°31' W 002°38'0 0.7
2018-May-15 19:30N 43°31' W 002°38'4 7.1
2018-May-15 19:00N 43°33' W 002°43'3 7.0
2018-May-15 18:30N 43°34' W 002°47'4 7.0
2018-May-15 18:00N 43°35' W 002°52'2 3.1
2018-May-15 17:30N 43°35' W 002°50'3 6.5
2018-May-15 17:00N 43°35' W 002°45'3 5.5
2018-May-15 16:31N 43°34' W 002°41'3 6.9
2018-May-15 16:00N 43°35' W 002°46'3 6.0
2018-May-15 15:30N 43°35' W 002°50'2 4.7
2018-May-15 15:00N 43°34' W 002°47'3 6.2
2018-May-15 14:30N 43°33' W 002°43'3 6.0
2018-May-15 14:00N 43°32' W 002°40'3 5.9
2018-May-15 13:30N 43°31' W 002°36'3 5.9
2018-May-15 13:00N 43°30' W 002°32'2 4.9
2018-May-15 12:30N 43°30' W 002°35'4 7.7
2018-May-15 12:00N 43°32' W 002°40'2 3.2
2018-May-15 11:30N 43°31' W 002°38'3 5.8
2018-May-15 11:00N 43°30' W 002°34'2 4.3
2018-May-15 10:30N 43°32' W 002°32'4 7.0
2018-May-15 10:00N 43°35' W 002°33'2 4.0
2018-May-15 09:30N 43°36' W 002°30'1 2.2
2018-May-15 09:00N 43°35' W 002°30'3 6.9
2018-May-15 08:30N 43°34' W 002°35'2 3.3
2018-May-15 08:00N 43°34' W 002°37'3 6.3
2018-May-15 07:31N 43°33' W 002°33'2 3.4
2018-May-15 07:00N 43°32' W 002°31'3 6.7
2018-May-15 06:30N 43°34' W 002°35'3 6.9
2018-May-15 06:00N 43°35' W 002°39'3 6.6
2018-May-15 05:31N 43°35' W 002°44'3 6.4
2018-May-15 05:00N 43°35' W 002°39'2 4.1
2018-May-15 04:30N 43°35' W 002°36'4 7.1
2018-May-15 04:00N 43°35' W 002°41'3 6.9
2018-May-15 03:31N 43°34' W 002°46'3 5.9
2018-May-15 03:00N 43°34' W 002°42'3 6.1
2018-May-15 02:30N 43°34' W 002°38'3 5.2
2018-May-15 02:00N 43°32' W 002°36'1 1.5
2018-May-15 01:30N 43°32' W 002°35'4 7.4
2018-May-15 01:00N 43°35' W 002°36'2 4.4
2018-May-15 00:30N 43°33' W 002°37'3 6.3
2018-May-15 00:01N 43°30' W 002°38'4 7.2
2018-May-14 23:30N 43°34' W 002°39'4 7.4
2018-May-14 23:00N 43°37' W 002°41'2 4.1
2018-May-14 22:30N 43°35' W 002°39'3 6.3
2018-May-14 22:00N 43°32' W 002°39'4 7.1
2018-May-14 21:30N 43°35' W 002°42'3 7.0
2018-May-14 21:01N 43°38' W 002°45'3 6.3
2018-May-14 20:30N 43°35' W 002°44'1 1.8
2018-May-14 20:00N 43°35' W 002°45'4 7.2
2018-May-14 19:30N 43°36' W 002°50'4 8.0
2018-May-14 19:00N 43°36' W 002°55'4 7.9
2018-May-14 18:30N 43°35' W 003°01'4 7.9
2018-May-14 17:59N 43°35' W 003°06'2 3.5
2018-May-14 17:28N 43°36' W 003°04'3 7.5
2018-May-14 17:00N 43°36' W 002°59'4 7.6
2018-May-14 16:30N 43°36' W 002°54'4 7.7
2018-May-14 16:00N 43°36' W 002°49'0 0.6
2018-May-14 15:30N 43°35' W 002°49'3 6.6
2018-May-14 15:00N 43°33' W 002°51'3 6.1
2018-May-14 14:30N 43°30' W 002°50'0 0.4
2018-May-14 14:00N 43°30' W 002°50'  
Track history (hours):
 
Tides and Currents Weather Stations Pressure Air Temp Water Temp Dewpoint Dewpoint Depression Visibility Wind Speed Wind Dir Waves Ship Positions

Juan De La Cosa

Last reported at 2018-May-24 14:00 UTC. Time now 2018-May-24 14:08 UTC.
Position N 43°31' W 002°55'.

Length 75 m; draft 4.5 m.

Type: SAR. MMSI: 224612000.

Date/timePositionNaut miles runAvg speedWind from/ knotsBaromVisibWave heightAir tempDewpointWater temp
2018-May-24 14:00N 43°31' W 002°55'4 7.7
2018-May-24 13:30N 43°31' W 002°49'6 1.3
2018-May-24 09:00N 43°28' W 002°42'4 7.3
2018-May-24 08:30N 43°30' W 002°47'4 7.4
2018-May-24 08:00N 43°32' W 002°51'4 7.4
2018-May-24 07:31N 43°34' W 002°56'2 3.8
2018-May-24 07:00N 43°35' W 002°54'3 6.9
2018-May-24 06:30N 43°35' W 002°49'2 4.2
2018-May-24 06:00N 43°35' W 002°47'4 7.2
2018-May-24 05:30N 43°35' W 002°52'2 3.9
2018-May-24 05:00N 43°35' W 002°54'4 7.0
2018-May-24 04:30N 43°35' W 002°49'2 3.7
2018-May-24 04:00N 43°35' W 002°47'4 7.1
2018-May-24 03:31N 43°35' W 002°52'4 7.5
2018-May-24 03:00N 43°36' W 002°57'4 7.2
2018-May-24 02:30N 43°37' W 003°01'4 7.1
2018-May-24 02:00N 43°39' W 003°06'4 7.1
2018-May-24 01:30N 43°40' W 003°10'4 7.1
2018-May-24 01:00N 43°42' W 003°14'4 7.2
2018-May-24 00:30N 43°44' W 003°19'4 7.4
2018-May-24 00:00N 43°45' W 003°23'4 7.5
2018-May-23 23:30N 43°46' W 003°29'4 7.6
2018-May-23 22:58N 43°47' W 003°34'1 2.9
2018-May-23 22:30N 43°47' W 003°36'3 6.3
2018-May-23 22:00N 43°46' W 003°32'2 3.5
2018-May-23 21:30N 43°45' W 003°34'3 6.4
2018-May-23 21:00N 43°43' W 003°37'4 7.6
2018-May-23 20:30N 43°39' W 003°38'4 7.1
2018-May-23 20:00N 43°36' W 003°39'4 7.2
2018-May-23 19:30N 43°34' W 003°43'5 3.3
2018-May-23 17:56N 43°29' W 003°46'0 0.3
2018-May-23 17:30N 43°29' W 003°46'2 3.3
2018-May-23 16:54N 43°31' W 003°45'2 5.9
2018-May-23 16:30N 43°33' W 003°47'4 8.3
2018-May-23 16:00N 43°33' W 003°53'3 6.8
2018-May-23 15:30N 43°34' W 003°58'3 6.4
2018-May-23 15:00N 43°35' W 004°02'3 6.7
2018-May-23 14:30N 43°35' W 004°07'3 6.9
2018-May-23 14:00N 43°36' W 004°11'4 7.0
2018-May-23 13:29N 43°35' W 004°16'3 7.0
2018-May-23 13:00N 43°35' W 004°21'4 7.0
2018-May-23 12:30N 43°35' W 004°26'1 2.2
2018-May-23 11:55N 43°34' W 004°26'3 6.9
2018-May-23 11:25N 43°36' W 004°30'3 7.3
2018-May-23 10:59N 43°37' W 004°34'2 1.3
2018-May-23 09:39N 43°39' W 004°34'17 6.7
2018-May-23 07:08N 43°39' W 004°57'1 5.5
2018-May-23 07:00N 43°39' W 004°58'15 4.5
2018-May-23 03:44N 43°50' W 005°12'1 5.9
2018-May-23 03:29N 43°50' W 005°14'2 3.2
2018-May-23 03:01N 43°51' W 005°12'11 7.1
2018-May-23 01:27N 43°52' W 005°27'3 7.2
2018-May-23 00:59N 43°52' W 005°32'0 0.1
2018-May-23 00:17N 43°52' W 005°32'15 7.1
2018-May-22 22:09N 43°49' W 005°11'11 7.3
2018-May-22 20:41N 43°48' W 004°57'3 7.5
2018-May-22 20:16N 43°47' W 004°53'2 7.8
2018-May-22 20:00N 43°46' W 004°50'4 7.5
2018-May-22 19:28N 43°44' W 004°45'4 7.8
2018-May-22 19:00N 43°42' W 004°41'510.0
2018-May-22 18:30N 43°40' W 004°34'510.0
2018-May-22 18:00N 43°39' W 004°28'510.2
2018-May-22 17:30N 43°38' W 004°21'510.5
2018-May-22 17:00N 43°37' W 004°14'510.5
2018-May-22 16:30N 43°36' W 004°06'510.4
2018-May-22 16:00N 43°36' W 003°59'510.3
2018-May-22 15:30N 43°35' W 003°52'510.2
2018-May-22 14:59N 43°35' W 003°45'610.5
2018-May-22 14:26N 43°35' W 003°37'2 5.2
2018-May-22 14:00N 43°36' W 003°35'3 5.3
2018-May-22 13:30N 43°39' W 003°35'0 0.3
2018-May-22 13:00N 43°39' W 003°35'3 5.1
2018-May-22 12:22N 43°36' W 003°34'1 3.4
2018-May-22 12:01N 43°37' W 003°34'3 5.3
2018-May-22 11:30N 43°39' W 003°36'3 5.1
2018-May-22 11:00N 43°42' W 003°37'2 4.4
2018-May-22 10:30N 43°42' W 003°40'3 3.6
2018-May-22 09:48N 43°40' W 003°39'2 4.6
2018-May-22 09:23N 43°40' W 003°36'2 4.6
2018-May-22 08:58N 43°42' W 003°36'2 4.6
2018-May-22 08:28N 43°44' W 003°38'2 4.7
2018-May-22 08:00N 43°44' W 003°41'3 5.2
2018-May-22 07:30N 43°42' W 003°44'2 3.6
2018-May-22 07:00N 43°41' W 003°44'1 1.9
2018-May-22 06:30N 43°41' W 003°45'2 3.4
2018-May-22 05:54N 43°40' W 003°43'2 5.8
2018-May-22 05:30N 43°41' W 003°40'1 0.9
2018-May-22 04:53N 43°40' W 003°40'1 1.6
2018-May-22 04:30N 43°41' W 003°41'1 2.0
2018-May-22 04:00N 43°42' W 003°42'2 3.7
2018-May-22 03:30N 43°41' W 003°40'4 7.1
2018-May-22 03:00N 43°40' W 003°35'2 3.2
2018-May-22 02:30N 43°40' W 003°37'4 7.1
2018-May-22 02:00N 43°40' W 003°42'1 1.4
2018-May-22 01:30N 43°39' W 003°42'1 1.4
2018-May-22 01:00N 43°39' W 003°41'3 6.8
2018-May-22 00:30N 43°38' W 003°37'3 6.6
2018-May-22 00:01N 43°39' W 003°32'2 3.1
2018-May-21 23:30N 43°38' W 003°34'1 1.5
2018-May-21 23:00N 43°39' W 003°33'4 7.3
2018-May-21 22:30N 43°37' W 003°38'1 1.8
2018-May-21 22:00N 43°37' W 003°39'4 6.9
2018-May-21 21:22N 43°36' W 003°33'2 6.8
2018-May-21 21:00N 43°36' W 003°30'4 7.1
2018-May-21 20:30N 43°35' W 003°25'5 9.8
2018-May-21 20:00N 43°34' W 003°18'5 9.8
2018-May-21 19:30N 43°34' W 003°11'5 9.9
2018-May-21 19:00N 43°35' W 003°05'5 9.1
2018-May-21 18:30N 43°36' W 002°58'5 9.2
2018-May-21 18:00N 43°34' W 002°53'4 7.1
2018-May-21 17:30N 43°34' W 002°48'3 5.2
2018-May-21 17:00N 43°34' W 002°44'2 4.8
2018-May-21 16:30N 43°35' W 002°41'3 6.9
2018-May-21 16:00N 43°33' W 002°38'3 5.5
2018-May-21 15:30N 43°33' W 002°42'3 7.0
2018-May-21 15:00N 43°32' W 002°47'4 7.1
2018-May-21 14:30N 43°32' W 002°51'2 4.6
2018-May-21 14:00N 43°32' W 002°48'4 7.7
2018-May-21 13:30N 43°32' W 002°43'2 3.4
2018-May-21 13:00N 43°32' W 002°45'3 6.6
2018-May-21 12:30N 43°32' W 002°50'3 6.2
2018-May-21 12:00N 43°33' W 002°54'3 6.6
2018-May-21 11:30N 43°33' W 002°59'3 6.9
2018-May-21 11:00N 43°33' W 003°03'4 7.3
2018-May-21 10:30N 43°34' W 003°08'4 7.3
2018-May-21 10:00N 43°34' W 003°13'0 0.7
2018-May-21 09:30N 43°35' W 003°14'0 0.7
2018-May-21 09:00N 43°34' W 003°14'4 7.0
2018-May-21 08:30N 43°34' W 003°19'3 7.0
2018-May-21 08:00N 43°35' W 003°24'4 7.0
2018-May-21 07:30N 43°35' W 003°29'4 7.2
2018-May-21 07:00N 43°36' W 003°33'4 7.1
2018-May-21 06:29N 43°36' W 003°39'4 7.1
2018-May-21 05:59N 43°36' W 003°43'3 6.9
2018-May-21 05:30N 43°36' W 003°48'3 6.9
2018-May-21 05:00N 43°36' W 003°53'4 7.2
2018-May-21 04:30N 43°37' W 003°58'4 7.2
2018-May-21 04:00N 43°37' W 004°03'3 6.9
2018-May-21 03:30N 43°37' W 004°07'3 6.9
2018-May-21 03:00N 43°37' W 004°12'4 7.1
2018-May-21 02:30N 43°38' W 004°17'3 7.1
2018-May-21 02:00N 43°38' W 004°22'3 6.7
2018-May-21 01:29N 43°38' W 004°27'3 6.8
2018-May-21 01:00N 43°38' W 004°31'4 6.7
2018-May-21 00:28N 43°39' W 004°36'4 6.5
2018-May-20 23:55N 43°39' W 004°41'3 6.6
2018-May-20 23:30N 43°39' W 004°45'4 6.8
2018-May-20 22:53N 43°39' W 004°51'3 6.7
2018-May-20 22:30N 43°39' W 004°54'3 6.7
2018-May-20 22:00N 43°39' W 004°59'13 6.3
2018-May-20 19:55N 43°38' W 005°17'1 3.0
2018-May-20 19:26N 43°37' W 005°15'3 6.3
2018-May-20 19:00N 43°37' W 005°11'3 5.8
2018-May-20 18:28N 43°36' W 005°07'3 5.7
2018-May-20 18:00N 43°36' W 005°03'4 5.7
2018-May-20 17:23N 43°35' W 004°59'3 5.8
2018-May-20 16:56N 43°35' W 004°55'10 5.7
2018-May-20 15:05N 43°33' W 004°41'1 5.7
2018-May-20 15:00N 43°33' W 004°40'3 5.8
2018-May-20 14:26N 43°33' W 004°35'43 5.6
2018-May-20 06:48N 43°36' W 003°37'3 5.4
2018-May-20 06:13N 43°36' W 003°32'1 5.6
2018-May-20 06:00N 43°36' W 003°31'3 5.6
2018-May-20 05:30N 43°35' W 003°27'3 5.5
2018-May-20 05:00N 43°35' W 003°23'3 5.3
2018-May-20 04:30N 43°35' W 003°20'3 5.3
2018-May-20 04:00N 43°35' W 003°16'3 5.3
2018-May-20 03:30N 43°34' W 003°12'3 5.3
2018-May-20 03:00N 43°34' W 003°09'3 5.2
2018-May-20 02:30N 43°34' W 003°05'3 5.2
2018-May-20 02:00N 43°33' W 003°01'3 5.2
2018-May-20 01:30N 43°33' W 002°58'3 5.3
2018-May-20 01:00N 43°33' W 002°54'3 5.5
2018-May-20 00:30N 43°33' W 002°50'3 5.5
2018-May-20 00:00N 43°33' W 002°47'3 5.5
2018-May-19 23:30N 43°32' W 002°43'3 5.6
2018-May-19 23:00N 43°32' W 002°39'3 5.5
2018-May-19 22:30N 43°31' W 002°36'3 5.4
2018-May-19 22:00N 43°29' W 002°32'3 5.5
2018-May-19 21:30N 43°28' W 002°29'3 5.6
2018-May-19 21:00N 43°27' W 002°25'3 5.6
2018-May-19 20:30N 43°26' W 002°22'3 5.7
2018-May-19 20:00N 43°25' W 002°18'3 5.7
2018-May-19 19:30N 43°24' W 002°14'1 1.2
2018-May-19 19:00N 43°25' W 002°15'2 4.6
2018-May-19 18:31N 43°25' W 002°18'3 5.2
2018-May-19 18:00N 43°26' W 002°21'3 5.5
2018-May-19 17:30N 43°27' W 002°25'3 5.5
2018-May-19 17:00N 43°28' W 002°28'3 5.6
2018-May-19 16:30N 43°29' W 002°32'3 5.4
2018-May-19 16:00N 43°30' W 002°35'3 5.3
2018-May-19 15:30N 43°31' W 002°38'3 5.1
2018-May-19 15:00N 43°32' W 002°42'3 5.5
2018-May-19 14:30N 43°32' W 002°46'3 5.2
2018-May-19 14:00N 43°33' W 002°49'3 5.5
2018-May-19 13:30N 43°33' W 002°53'3 5.8
2018-May-19 13:00N 43°33' W 002°57'3 6.1
2018-May-19 12:30N 43°35' W 003°00'3 5.7
2018-May-19 12:00N 43°36' W 003°04'3 5.1
2018-May-19 11:30N 43°36' W 003°07'3 5.6
2018-May-19 11:00N 43°37' W 003°11'3 5.4
2018-May-19 10:30N 43°38' W 003°15'3 5.2
2018-May-19 10:00N 43°36' W 003°18'3 5.1
2018-May-19 09:30N 43°35' W 003°21'3 5.2
2018-May-19 09:00N 43°35' W 003°24'3 5.8
2018-May-19 08:30N 43°35' W 003°28'3 5.9
2018-May-19 08:00N 43°36' W 003°32'3 5.5
2018-May-19 07:30N 43°36' W 003°36'3 5.0
2018-May-19 07:00N 43°36' W 003°39'3 5.3
2018-May-19 06:30N 43°37' W 003°43'3 5.6
2018-May-19 06:00N 43°37' W 003°47'3 5.6
2018-May-19 05:30N 43°37' W 003°51'3 5.6
2018-May-19 05:00N 43°37' W 003°55'3 5.8
2018-May-19 04:30N 43°38' W 003°59'3 6.1
2018-May-19 03:57N 43°38' W 004°03'3 6.0
2018-May-19 03:22N 43°39' W 004°08'45 5.1
2018-May-18 18:26N 43°37' W 005°11'2 3.8
2018-May-18 17:59N 43°38' W 005°11'3 5.8
2018-May-18 17:28N 43°39' W 005°07'3 5.8
2018-May-18 17:00N 43°40' W 005°03'56 5.7
2018-May-18 07:08N 43°36' W 003°45'9 5.5
2018-May-18 05:26N 43°35' W 003°33'2 5.6
2018-May-18 05:00N 43°35' W 003°29'3 5.5
2018-May-18 04:30N 43°35' W 003°26'3 5.3
2018-May-18 04:00N 43°35' W 003°22'3 5.3
2018-May-18 03:30N 43°34' W 003°18'3 5.4
2018-May-18 02:59N 43°34' W 003°14'3 5.7
2018-May-18 02:30N 43°34' W 003°11'3 5.9
2018-May-18 02:00N 43°34' W 003°07'3 5.5
2018-May-18 01:30N 43°33' W 003°03'3 5.3
2018-May-18 01:00N 43°33' W 002°59'3 5.3
2018-May-18 00:29N 43°33' W 002°55'2 5.0
2018-May-18 00:00N 43°33' W 002°52'3 5.1
2018-May-17 23:30N 43°33' W 002°49'3 5.2
2018-May-17 23:00N 43°33' W 002°45'3 5.3
2018-May-17 22:29N 43°32' W 002°41'3 5.4
2018-May-17 22:00N 43°31' W 002°38'3 5.5
2018-May-17 21:30N 43°30' W 002°34'3 5.3
2018-May-17 21:00N 43°29' W 002°31'3 5.3
2018-May-17 20:30N 43°28' W 002°28'3 5.4
2018-May-17 20:00N 43°27' W 002°24'3 5.4
2018-May-17 19:30N 43°26' W 002°21'3 5.2
2018-May-17 19:00N 43°25' W 002°17'3 5.2
2018-May-17 18:30N 43°24' W 002°14'3 5.2
2018-May-17 18:00N 43°23' W 002°11'3 5.3
2018-May-17 17:31N 43°23' W 002°07'3 5.3
2018-May-17 17:00N 43°22' W 002°11'3 5.7
2018-May-17 16:30N 43°23' W 002°15'3 5.5
2018-May-17 16:00N 43°24' W 002°18'3 5.6
2018-May-17 15:30N 43°27' W 002°20'2 3.6
2018-May-17 15:00N 43°28' W 002°19'2 3.9
2018-May-17 14:30N 43°30' W 002°17'3 5.4
2018-May-17 14:00N 43°28' W 002°20'3 5.2
2018-May-17 13:30N 43°27' W 002°23'2 4.4
2018-May-17 13:00N 43°27' W 002°26'3 5.4
2018-May-17 12:30N 43°29' W 002°29'3 5.3
2018-May-17 12:00N 43°30' W 002°33'3 5.4
2018-May-17 11:30N 43°31' W 002°36'3 5.4
2018-May-17 11:00N 43°33' W 002°38'3 5.1
2018-May-17 10:30N 43°34' W 002°41'2 3.2
2018-May-17 10:00N 43°33' W 002°43'3 5.6
2018-May-17 09:30N 43°34' W 002°40'3 5.6
2018-May-17 09:00N 43°35' W 002°36'3 5.5
2018-May-17 08:30N 43°35' W 002°32'3 5.4
2018-May-17 08:00N 43°36' W 002°28'3 5.2
2018-May-17 07:30N 43°35' W 002°25'0 0.7
2018-May-17 07:00N 43°35' W 002°25'3 6.5
2018-May-17 06:30N 43°36' W 002°29'3 6.7
2018-May-17 06:00N 43°37' W 002°33'2 3.8
2018-May-17 05:30N 43°38' W 002°35'3 5.6
2018-May-17 05:00N 43°38' W 002°31'3 5.7
2018-May-17 04:30N 43°38' W 002°27'3 5.4
2018-May-17 04:00N 43°36' W 002°25'3 6.0
2018-May-17 03:30N 43°33' W 002°23'3 6.6
2018-May-17 03:01N 43°30' W 002°22'2 4.5
2018-May-17 02:30N 43°31' W 002°25'4 7.2
2018-May-17 02:00N 43°31' W 002°30'2 3.6
2018-May-17 01:30N 43°31' W 002°32'3 6.4
2018-May-17 01:00N 43°30' W 002°28'1 1.8
2018-May-17 00:30N 43°29' W 002°28'1 2.1
2018-May-17 00:00N 43°29' W 002°29'1 2.7
2018-May-16 23:30N 43°29' W 002°31'4 7.0
2018-May-16 23:00N 43°31' W 002°35'3 5.6
2018-May-16 22:30N 43°31' W 002°31'2 5.0
2018-May-16 22:00N 43°33' W 002°33'3 6.7
2018-May-16 21:30N 43°34' W 002°38'3 6.6
2018-May-16 21:00N 43°34' W 002°42'3 6.6
2018-May-16 20:30N 43°34' W 002°47'3 6.6
2018-May-16 20:00N 43°34' W 002°52'3 6.9
2018-May-16 19:30N 43°33' W 002°56'3 6.6
2018-May-16 19:00N 43°33' W 003°01'2 3.4
2018-May-16 18:30N 43°34' W 003°03'4 7.1
2018-May-16 17:53N 43°33' W 002°57'3 7.2
2018-May-16 17:29N 43°33' W 002°53'3 7.2
2018-May-16 17:00N 43°32' W 002°48'3 7.0
2018-May-16 16:30N 43°32' W 002°44'3 6.7
2018-May-16 16:00N 43°31' W 002°39'3 6.4
2018-May-16 15:30N 43°31' W 002°35'1 2.2
2018-May-16 15:00N 43°32' W 002°35'4 7.5
2018-May-16 14:30N 43°34' W 002°39'4 7.4
2018-May-16 14:00N 43°36' W 002°44'3 5.9
2018-May-16 13:30N 43°36' W 002°48'0 0.5
2018-May-16 13:00N 43°36' W 002°48'2 3.8
2018-May-16 12:30N 43°36' W 002°46'1 1.9
2018-May-16 12:00N 43°36' W 002°44'4 7.5
2018-May-16 11:30N 43°37' W 002°49'2 3.3
2018-May-16 11:00N 43°38' W 002°47'3 6.4
2018-May-16 10:30N 43°38' W 002°43'1 1.3
2018-May-16 10:00N 43°37' W 002°44'4 7.4
2018-May-16 09:30N 43°37' W 002°49'2 3.1
2018-May-16 09:00N 43°38' W 002°46'3 6.7
2018-May-16 08:30N 43°36' W 002°43'3 6.7
2018-May-16 08:00N 43°33' W 002°39'1 1.3
2018-May-16 07:30N 43°33' W 002°40'3 6.9
2018-May-16 07:00N 43°35' W 002°44'3 6.2
2018-May-16 06:30N 43°35' W 002°48'1 3.0
2018-May-16 06:00N 43°35' W 002°50'3 6.7
2018-May-16 05:30N 43°34' W 002°45'3 6.8
2018-May-16 05:00N 43°34' W 002°41'1 2.6
2018-May-16 04:30N 43°33' W 002°42'4 7.1
2018-May-16 04:01N 43°32' W 002°47'3 7.0
2018-May-16 03:30N 43°33' W 002°52'2 3.9
2018-May-16 03:00N 43°34' W 002°49'3 6.4
2018-May-16 02:30N 43°34' W 002°45'3 6.2
2018-May-16 02:00N 43°34' W 002°40'3 6.4
2018-May-16 01:30N 43°35' W 002°36'3 5.1
2018-May-16 01:00N 43°35' W 002°40'4 7.5
2018-May-16 00:30N 43°35' W 002°45'0 0.6
2018-May-15 23:59N 43°35' W 002°45'3 6.3
2018-May-15 23:30N 43°35' W 002°41'2 3.4
2018-May-15 23:00N 43°35' W 002°38'4 7.4
2018-May-15 22:30N 43°35' W 002°43'4 7.3
2018-May-15 22:00N 43°35' W 002°48'1 1.9
2018-May-15 21:30N 43°36' W 002°49'3 5.8
2018-May-15 21:00N 43°34' W 002°46'3 6.5
2018-May-15 20:30N 43°33' W 002°42'3 6.4
2018-May-15 20:00N 43°31' W 002°38'0 0.7
2018-May-15 19:30N 43°31' W 002°38'4 7.1
2018-May-15 19:00N 43°33' W 002°43'3 7.0
2018-May-15 18:30N 43°34' W 002°47'4 7.0
2018-May-15 18:00N 43°35' W 002°52'2 3.1
2018-May-15 17:30N 43°35' W 002°50'3 6.5
2018-May-15 17:00N 43°35' W 002°45'3 5.5
2018-May-15 16:31N 43°34' W 002°41'3 6.9
2018-May-15 16:00N 43°35' W 002°46'3 6.0
2018-May-15 15:30N 43°35' W 002°50'2 4.7
2018-May-15 15:00N 43°34' W 002°47'3 6.2
2018-May-15 14:30N 43°33' W 002°43'3 6.0
2018-May-15 14:00N 43°32' W 002°40'3 5.9
2018-May-15 13:30N 43°31' W 002°36'3 5.9
2018-May-15 13:00N 43°30' W 002°32'2 4.9
2018-May-15 12:30N 43°30' W 002°35'4 7.7
2018-May-15 12:00N 43°32' W 002°40'2 3.2
2018-May-15 11:30N 43°31' W 002°38'3 5.8
2018-May-15 11:00N 43°30' W 002°34'2 4.3
2018-May-15 10:30N 43°32' W 002°32'4 7.0
2018-May-15 10:00N 43°35' W 002°33'2 4.0
2018-May-15 09:30N 43°36' W 002°30'1 2.2
2018-May-15 09:00N 43°35' W 002°30'3 6.9
2018-May-15 08:30N 43°34' W 002°35'2 3.3
2018-May-15 08:00N 43°34' W 002°37'3 6.3
2018-May-15 07:31N 43°33' W 002°33'2 3.4
2018-May-15 07:00N 43°32' W 002°31'3 6.7
2018-May-15 06:30N 43°34' W 002°35'3 6.9
2018-May-15 06:00N 43°35' W 002°39'3 6.6
2018-May-15 05:31N 43°35' W 002°44'3 6.4
2018-May-15 05:00N 43°35' W 002°39'2 4.1
2018-May-15 04:30N 43°35' W 002°36'4 7.1
2018-May-15 04:00N 43°35' W 002°41'3 6.9
2018-May-15 03:31N 43°34' W 002°46'3 5.9
2018-May-15 03:00N 43°34' W 002°42'3 6.1
2018-May-15 02:30N 43°34' W 002°38'3 5.2
2018-May-15 02:00N 43°32' W 002°36'1 1.5
2018-May-15 01:30N 43°32' W 002°35'4 7.4
2018-May-15 01:00N 43°35' W 002°36'2 4.4
2018-May-15 00:30N 43°33' W 002°37'3 6.3
2018-May-15 00:01N 43°30' W 002°38'4 7.2
2018-May-14 23:30N 43°34' W 002°39'4 7.4
2018-May-14 23:00N 43°37' W 002°41'2 4.1
2018-May-14 22:30N 43°35' W 002°39'3 6.3
2018-May-14 22:00N 43°32' W 002°39'4 7.1
2018-May-14 21:30N 43°35' W 002°42'3 7.0
2018-May-14 21:01N 43°38' W 002°45'3 6.3
2018-May-14 20:30N 43°35' W 002°44'1 1.8
2018-May-14 20:00N 43°35' W 002°45'4 7.2
2018-May-14 19:30N 43°36' W 002°50'4 8.0
2018-May-14 19:00N 43°36' W 002°55'4 7.9
2018-May-14 18:30N 43°35' W 003°01'4 7.9
2018-May-14 17:59N 43°35' W 003°06'2 3.5
2018-May-14 17:28N 43°36' W 003°04'3 7.5
2018-May-14 17:00N 43°36' W 002°59'4 7.6
2018-May-14 16:30N 43°36' W 002°54'4 7.7
2018-May-14 16:00N 43°36' W 002°49'0 0.6
2018-May-14 15:30N 43°35' W 002°49'3 6.6
2018-May-14 15:00N 43°33' W 002°51'3 6.1
2018-May-14 14:30N 43°30' W 002°50'0 0.4
2018-May-14 14:00N 43°30' W 002°50'  

Dump ship's entire track history